< < Back
Terminal Aerodrome Forecast


Current Version              Previous Versions:   1  2  3  4  5  6  7  8  9  

Terminal Aerodrome Forecast

320
FTUS42 KJAX 251100
TAFSSI
TAF
KSSI 251120Z 2512/2612 VRB02KT P6SM SKC
     FM251400 01007KT P6SM SKC
     FM251900 08007KT P6SM SKC
     FM260200 00000KT P6SM SKC=



Latest METAR

570
SAUS70 KWBC 260200 RRK
MTRSSI
METAR KSSI 260153Z AUTO 00000KT 10SM CLR 14/12 A3001 RMK AO2 SLP161
T01440117


USA.gov is the U.S. government's official web portal to all federal, state and local government web resources and services.